createdAt,value
2023-02-12T00:00:59.759Z,98774.13
2023-02-12T00:05:00.450Z,98777.59
2023-02-12T00:09:04.171Z,98774.09
2023-02-12T00:13:05.253Z,98781.06
2023-02-12T00:17:05.918Z,98774.78
2023-02-12T00:21:09.038Z,98774.81
2023-02-12T00:25:14.036Z,98764.41
2023-02-12T00:29:14.494Z,98771.50
2023-02-12T00:33:14.803Z,98779.88
2023-02-12T00:37:15.292Z,98784.69
2023-02-12T00:41:18.664Z,98783.72
2023-02-12T00:45:19.137Z,98781.09
2023-02-12T00:49:20.577Z,98775.13
2023-02-12T00:53:24.172Z,98771.84
2023-02-12T00:57:27.218Z,98777.75
2023-02-12T01:01:28.271Z,98790.28
2023-02-12T01:05:30.873Z,98774.47
2023-02-12T01:09:31.245Z,98791.97
2023-02-12T01:13:36.541Z,98793.28
2023-02-12T01:17:37.057Z,98794.94
2023-02-12T01:21:38.428Z,98786.16
2023-02-12T01:25:40.827Z,98793.25
2023-02-12T01:29:44.824Z,98801.50
2023-02-12T01:33:46.934Z,98796.09
2023-02-12T01:37:47.330Z,98805.47
2023-02-12T01:41:49.338Z,98796.25
2023-02-12T01:45:56.545Z,98794.91
2023-02-12T01:49:57.248Z,98803.16
2023-02-12T01:54:05.606Z,98809.25
2023-02-12T01:58:10.186Z,98812.72
2023-02-12T02:02:13.743Z,98806.09
2023-02-12T02:06:20.025Z,98812.41
2023-02-12T02:10:21.606Z,98812.75
2023-02-12T02:14:35.074Z,98807.75
2023-02-12T02:18:51.453Z,98817.81
2023-02-12T02:23:11.644Z,98823.91
2023-02-12T02:27:38.863Z,98818.78
2023-02-12T02:31:49.786Z,98823.56
2023-02-12T02:36:00.121Z,98807.44
2023-02-12T02:40:12.743Z,98806.78
2023-02-12T02:44:22.032Z,98816.66
2023-02-12T02:48:32.566Z,98808.91
2023-02-12T02:52:42.145Z,98811.88
2023-02-12T02:56:48.893Z,98802.16
2023-02-12T03:00:58.830Z,98802.78
2023-02-12T03:05:09.208Z,98813.09
2023-02-12T03:09:19.573Z,98808.78
2023-02-12T03:13:29.091Z,98815.59
2023-02-12T03:17:35.751Z,98823.19
2023-02-12T03:21:51.589Z,98823.38
2023-02-12T03:26:00.213Z,98823.91
2023-02-12T03:30:02.282Z,98829.81
2023-02-12T03:34:17.455Z,98827.28
2023-02-12T03:38:37.688Z,98834.41
2023-02-12T03:42:47.980Z,98838.34
2023-02-12T03:47:05.769Z,98842.44
2023-02-12T03:51:19.155Z,98839.69
2023-02-12T03:55:22.948Z,98837.69
2023-02-12T03:59:25.731Z,98808.31
2023-02-12T04:03:26.347Z,98835.72
2023-02-12T04:07:27.052Z,98838.66
2023-02-12T04:11:43.854Z,98840.81
2023-02-12T04:16:10.299Z,98849.56
2023-02-12T04:20:25.860Z,98860.75
2023-02-12T04:24:47.751Z,98854.81
2023-02-12T04:29:05.884Z,98856.19
2023-02-12T04:33:11.860Z,98860.19
2023-02-12T04:37:20.804Z,98873.19
2023-02-12T04:41:21.848Z,98862.13
2023-02-12T04:45:29.219Z,98874.16
2023-02-12T04:49:31.198Z,98881.22
2023-02-12T04:53:31.972Z,98881.91
2023-02-12T04:57:33.331Z,98885.84
2023-02-12T05:01:37.609Z,98887.47
2023-02-12T05:05:37.982Z,98881.91
2023-02-12T05:09:39.025Z,98865.47
2023-02-12T05:13:41.873Z,98878.00
2023-02-12T05:17:45.958Z,98878.31
2023-02-12T05:21:46.500Z,98886.50
2023-02-12T05:25:46.783Z,98881.06
2023-02-12T05:29:47.238Z,98883.19
2023-02-12T05:33:52.593Z,98894.72
2023-02-12T05:37:52.943Z,98900.97
2023-02-12T05:41:53.380Z,98900.66
2023-02-12T05:45:53.992Z,98889.16
2023-02-12T05:49:57.178Z,98897.41
2023-02-12T05:54:03.972Z,98905.50
2023-02-12T05:58:04.479Z,98906.69
2023-02-12T06:02:04.981Z,98911.25
2023-02-12T06:06:08.680Z,98916.22
2023-02-12T06:10:12.273Z,98915.56
2023-02-12T06:14:17.548Z,98915.56
2023-02-12T06:18:17.839Z,98919.47
2023-02-12T06:22:20.934Z,98919.78
2023-02-12T06:26:22.381Z,98921.09
2023-02-12T06:30:23.893Z,98933.19
2023-02-12T06:34:24.534Z,98938.31
2023-02-12T06:38:27.616Z,98950.19
2023-02-12T06:42:28.002Z,98944.88
2023-02-12T06:46:28.952Z,98945.06
2023-02-12T06:50:31.035Z,98951.16
2023-02-12T06:54:34.540Z,98946.19
2023-02-12T06:58:38.141Z,98949.00
2023-02-12T07:02:39.187Z,98952.47
2023-02-12T07:06:39.760Z,98956.91
2023-02-12T07:10:43.810Z,98956.09
2023-02-12T07:14:44.455Z,98974.22
2023-02-12T07:18:46.419Z,98963.38
2023-02-12T07:22:47.527Z,98963.38
2023-02-12T07:26:51.025Z,98966.72
2023-02-12T07:30:51.608Z,98976.69
2023-02-12T07:34:51.847Z,98967.44
2023-02-12T07:38:52.286Z,98967.78
2023-02-12T07:42:58.553Z,98971.41
2023-02-12T07:46:58.864Z,98972.75
2023-02-12T07:50:59.197Z,98972.06
2023-02-12T07:54:59.373Z,98982.31
2023-02-12T07:59:05.756Z,98979.69
2023-02-12T08:03:06.310Z,98975.09
2023-02-12T08:07:06.716Z,98984.50
2023-02-12T08:11:08.067Z,98983.84
2023-02-12T08:15:12.292Z,98981.31
2023-02-12T08:19:21.749Z,98979.66
2023-02-12T08:23:24.257Z,98986.53
2023-02-12T08:27:24.726Z,98981.56
2023-02-12T08:31:32.487Z,98984.22
2023-02-12T08:35:33.035Z,98978.41
2023-02-12T08:39:33.937Z,98977.19
2023-02-12T08:43:34.601Z,98975.97
2023-02-12T08:47:37.815Z,98976.78
2023-02-12T08:51:41.379Z,98991.75
2023-02-12T08:55:42.055Z,98988.88
2023-02-12T08:59:42.759Z,98986.81
2023-02-12T09:03:47.230Z,98980.97
2023-02-12T09:07:47.928Z,98986.44
2023-02-12T09:11:49.584Z,98987.94
2023-02-12T09:15:50.957Z,98994.09
2023-02-12T09:19:54.008Z,98986.19
2023-02-12T09:23:54.975Z,98988.50
2023-02-12T09:27:55.573Z,98981.13
2023-02-12T09:31:56.638Z,98986.91
2023-02-12T09:36:03.711Z,98989.84
2023-02-12T09:40:04.200Z,98994.56
2023-02-12T09:44:14.520Z,98994.56
2023-02-12T09:48:50.362Z,98996.94
2023-02-12T09:52:59.012Z,98991.72
2023-02-12T09:57:05.324Z,99003.09
2023-02-12T10:01:16.657Z,98971.50
2023-02-12T10:05:22.988Z,98999.69
2023-02-12T10:09:51.871Z,98999.84
2023-02-12T10:14:12.044Z,99004.19
2023-02-12T10:18:52.033Z,99006.69
2023-02-12T10:23:15.136Z,98996.50
2023-02-12T10:27:20.379Z,99011.56
2023-02-12T10:31:32.479Z,99003.47
2023-02-12T10:35:35.533Z,98996.19
2023-02-12T10:39:44.449Z,98995.66
2023-02-12T10:43:47.584Z,98935.13
2023-02-12T10:47:50.025Z,98983.28
2023-02-12T10:52:21.122Z,98993.31
2023-02-12T10:56:25.876Z,98987.34
2023-02-12T11:00:36.616Z,98998.28
2023-02-12T11:04:37.336Z,98977.22
2023-02-12T11:08:41.027Z,98983.25
2023-02-12T11:12:49.230Z,98985.53
2023-02-12T11:16:58.266Z,98978.13
2023-02-12T11:21:01.790Z,98989.38
2023-02-12T11:25:14.134Z,98981.38
2023-02-12T11:29:24.275Z,98895.44
2023-02-12T11:33:35.636Z,98984.47
2023-02-12T11:37:39.147Z,98976.56
2023-02-12T11:41:44.489Z,98977.66
2023-02-12T11:45:50.643Z,98979.97
2023-02-12T11:49:59.320Z,98972.00
2023-02-12T11:54:06.397Z,98957.22
2023-02-12T11:58:17.510Z,98968.69
2023-02-12T12:02:28.732Z,98965.84
2023-02-12T12:06:40.935Z,98968.28
2023-02-12T12:10:50.157Z,98976.50
2023-02-12T12:15:07.288Z,98950.38
2023-02-12T12:19:29.597Z,98940.34
2023-02-12T12:23:41.347Z,98969.25
2023-02-12T12:28:08.449Z,98960.03
2023-02-12T12:32:12.214Z,98952.66
2023-02-12T12:36:46.961Z,98938.22
2023-02-12T12:41:06.416Z,98951.78
2023-02-12T12:45:31.526Z,98959.16
2023-02-12T12:49:50.641Z,98946.44
2023-02-12T12:54:14.759Z,98964.94
2023-02-12T12:58:36.713Z,98959.41
2023-02-12T13:03:39.527Z,98949.75
2023-02-12T13:07:53.407Z,98947.72
2023-02-12T13:12:17.306Z,98960.06
2023-02-12T13:16:30.903Z,98964.53
2023-02-12T13:20:45.130Z,98966.16
2023-02-12T13:24:54.962Z,98962.88
2023-02-12T13:29:01.322Z,98969.03
2023-02-12T13:33:14.784Z,98963.66
2023-02-12T13:37:26.127Z,98978.00
2023-02-12T13:41:28.365Z,98971.44
2023-02-12T13:45:44.452Z,98972.69
2023-02-12T13:49:58.988Z,98980.91
2023-02-12T13:54:39.609Z,98973.91
2023-02-12T13:58:54.407Z,98955.88
2023-02-12T14:02:55.504Z,98966.06
2023-02-12T14:07:06.805Z,98964.53
2023-02-12T14:11:12.168Z,98958.63
2023-02-12T14:15:29.220Z,98959.00
2023-02-12T14:20:08.958Z,98953.25
2023-02-12T14:24:55.464Z,98954.25
2023-02-12T14:29:00.140Z,98941.56
2023-02-12T14:33:23.543Z,98945.59
2023-02-12T14:37:41.639Z,98933.66
2023-02-12T14:41:44.480Z,98937.13
2023-02-12T14:45:44.543Z,98941.22
2023-02-12T14:49:50.325Z,98940.47
2023-02-12T14:53:53.634Z,98925.53
2023-02-12T14:58:02.924Z,98934.28
2023-02-12T15:02:05.971Z,98933.75
2023-02-12T15:06:18.755Z,98939.94
2023-02-12T15:10:23.053Z,98905.63
2023-02-12T15:14:30.120Z,98928.94
2023-02-12T15:18:45.250Z,98926.00
2023-02-12T15:22:46.641Z,98932.84
2023-02-12T15:26:51.705Z,98924.13
2023-02-12T15:30:58.878Z,98912.94
2023-02-12T15:35:00.124Z,98922.66
2023-02-12T15:39:04.264Z,98918.75
2023-02-12T15:43:07.793Z,98905.47
2023-02-12T15:47:24.157Z,98923.81
2023-02-12T15:51:37.018Z,98921.78
2023-02-12T15:55:42.384Z,98921.78
2023-02-12T15:59:43.623Z,98922.19
2023-02-12T16:03:47.035Z,98911.22
2023-02-12T16:07:49.472Z,98909.28
2023-02-12T16:11:51.315Z,98922.84
2023-02-12T16:16:09.204Z,98892.38
2023-02-12T16:20:27.802Z,98917.53
2023-02-12T16:24:36.249Z,98928.44
2023-02-12T16:28:36.557Z,98910.03
2023-02-12T16:32:40.266Z,98923.03
2023-02-12T16:36:49.986Z,98908.13
2023-02-12T16:41:30.992Z,98935.28
2023-02-12T16:45:45.307Z,98937.75
2023-02-12T16:49:58.723Z,98936.03
2023-02-12T16:54:04.399Z,98946.00
2023-02-12T16:58:04.835Z,98946.72
2023-02-12T17:02:12.634Z,98948.44
2023-02-12T17:06:13.504Z,98928.28
2023-02-12T17:10:20.243Z,98957.19
2023-02-12T17:14:23.038Z,98953.91
2023-02-12T17:18:23.795Z,98958.66
2023-02-12T17:22:30.060Z,98970.63
2023-02-12T17:26:32.934Z,98970.34
2023-02-12T17:30:33.184Z,98942.66
2023-02-12T17:34:46.565Z,98940.94
2023-02-12T17:38:48.538Z,98968.78
2023-02-12T17:42:51.333Z,98953.84
2023-02-12T17:46:51.920Z,98970.06
2023-02-12T17:50:58.483Z,98976.66
2023-02-12T17:54:58.794Z,98986.03
2023-02-12T17:59:02.566Z,98972.28
2023-02-12T18:03:02.793Z,98966.16
2023-02-12T18:07:02.952Z,98978.06
2023-02-12T18:11:10.085Z,98992.75
2023-02-12T18:15:15.129Z,98988.06
2023-02-12T18:19:16.928Z,98989.22
2023-02-12T18:23:17.638Z,98978.28
2023-02-12T18:27:19.482Z,98987.63
2023-02-12T18:31:24.367Z,98964.75
2023-02-12T18:35:24.705Z,98989.63
2023-02-12T18:39:26.226Z,98932.63
2023-02-12T18:43:26.578Z,98967.38
2023-02-12T18:47:29.404Z,98981.69
2023-02-12T18:51:36.757Z,98977.34
2023-02-12T18:55:37.083Z,98954.03
2023-02-12T18:59:37.245Z,98978.28
2023-02-12T19:03:40.260Z,98973.22
2023-02-12T19:07:41.037Z,98972.72
2023-02-12T19:11:41.358Z,98968.78
2023-02-12T19:15:44.109Z,98984.66
2023-02-12T19:19:47.032Z,98960.25
2023-02-12T19:23:49.885Z,98986.97
2023-02-12T19:27:50.068Z,98951.88
2023-02-12T19:31:50.596Z,98971.19
2023-02-12T19:35:55.395Z,98990.00
2023-02-12T19:39:55.917Z,98942.03
2023-02-12T19:43:58.431Z,98993.00
2023-02-12T19:47:58.575Z,98988.22
2023-02-12T19:52:01.763Z,98988.09
2023-02-12T19:56:05.050Z,98978.34
2023-02-12T20:00:05.504Z,98945.06
2023-02-12T20:04:07.603Z,98923.75
2023-02-12T20:08:10.563Z,98922.09
2023-02-12T20:12:11.031Z,98966.41
2023-02-12T20:16:16.144Z,98910.03
2023-02-12T20:20:16.882Z,98966.03
2023-02-12T20:24:19.657Z,98983.88
2023-02-12T20:28:20.299Z,98960.00
2023-02-12T20:32:21.958Z,98972.19
2023-02-12T20:36:22.048Z,98997.81
2023-02-12T20:40:35.793Z,98986.25
2023-02-12T20:44:36.950Z,98989.19
2023-02-12T20:48:37.476Z,98983.28
2023-02-12T20:52:37.915Z,98985.59
2023-02-12T20:56:41.834Z,98971.13
2023-02-12T21:00:42.024Z,98994.44
2023-02-12T21:04:42.275Z,98985.59
2023-02-12T21:08:45.049Z,98929.41
2023-02-12T21:12:47.955Z,98952.28
2023-02-12T21:16:48.560Z,98988.00
2023-02-12T21:20:48.863Z,98929.06
2023-02-12T21:24:51.953Z,98958.28
2023-02-12T21:28:56.407Z,98995.25
2023-02-12T21:32:56.722Z,98992.56
2023-02-12T21:36:59.568Z,98991.09
2023-02-12T21:40:59.888Z,98994.06
2023-02-12T21:45:03.803Z,98948.47
2023-02-12T21:49:04.819Z,99010.59
2023-02-12T21:53:04.969Z,99000.59
2023-02-12T21:57:05.096Z,99001.47
2023-02-12T22:01:14.430Z,98972.50
2023-02-12T22:05:14.768Z,98989.28
2023-02-12T22:09:17.524Z,98983.56
2023-02-12T22:13:17.632Z,98977.06
2023-02-12T22:17:20.446Z,98981.53
2023-02-12T22:21:21.466Z,98993.13
2023-02-12T22:25:22.207Z,98992.97
2023-02-12T22:29:23.651Z,98972.59
2023-02-12T22:33:28.274Z,98985.03
2023-02-12T22:37:29.079Z,98973.75
2023-02-12T22:41:30.166Z,98987.94
2023-02-12T22:45:30.612Z,98995.78
2023-02-12T22:49:34.287Z,98993.78
2023-02-12T22:53:34.347Z,99000.06
2023-02-12T22:57:34.597Z,99003.50
2023-02-12T23:01:35.172Z,98970.56
2023-02-12T23:05:39.422Z,98994.00
2023-02-12T23:09:39.540Z,99001.63
2023-02-12T23:13:40.258Z,99008.69
2023-02-12T23:17:40.564Z,99004.84
2023-02-12T23:21:43.605Z,98995.59
2023-02-12T23:25:44.220Z,98925.03
2023-02-12T23:29:44.374Z,99008.16
2023-02-12T23:33:44.549Z,98987.41
2023-02-12T23:37:47.264Z,99006.06
2023-02-12T23:41:47.399Z,98983.16
2023-02-12T23:45:47.981Z,98998.19
2023-02-12T23:49:48.148Z,99002.72
2023-02-12T23:53:51.542Z,98990.59
2023-02-12T23:57:52.467Z,98990.75
